9CN1 weather

Hazel Hawkins Memorial Hospital Heliport
Hollister, California, United States

Public forecast

Using degrees Fahrenheit for public forecast. Weather courtesy of forecast.io.

Closest aviation weather report (METAR) to Hazel Hawkins Memorial Hospital Heliport

Closest report is Salinas Municipal Airport, 14.8 nm (27.4 km) SW. Retrieved 2019/10/22 03:53 UTC (60 minutes ago):

KSNS 220353Z AUTO 06005KT 10SM CLR 16/09 A3013 RMK AO2 SLP212 T01610094

Closest aviation forecast (TAF) to Hazel Hawkins Memorial Hospital Heliport

Closest forecast is Salinas Municipal Airport, 14.8 nm (27.4 km) SW. Retrieved 2019-10-22 00:34 UTC (4 hours ago):

TAF KSNS 212332Z 2200/2224 29011KT P6SM SKC FM220400 VRB03KT P6SM SKC FM220800 11004KT P6SM SKC FM221900 VRB03KT P6SM SKC FM222200 29010KT P6SM SKC